Airfield :
LOGIN :

Register | Disclaimer

   EN    FR    IT 

 










Legend :    VFR   Marginal VFR   IFR   Intensive IFR   Very Intensive IFR
Visi :
Ceiling :
>= 8 km
>= 3000ft
5 to 8 km
1000 to 3000 ft
1500m to 5 km
500 to 1000 ft
800 to 1500m
200 to 500 ft
< 800m
< 200 ft
Symbols :   Thunderstorms  Fog  Heavy snow  Heavy precipitations  Wind > 20 kt
SIGMETs :     Misc.  Thunderstorms  Icing  Turbulence  Mountain Waves  Volcanic Ashes






- Airport Elevation : 62 ft
- IATA code : TAN


GMTT - Tanger Ibn Batouta

CURRENT METAR :
  • 220500Z 17010G20KT 6000 BKN002 BKN013 16/13 Q1007 NOSIG

EXPIRED METARs :
  • 220430Z 18010G20KT 150V210 8000 BKN010 BKN020 BKN033 15/13 Q1008 NOSIG
  • 220400Z 18010KT 150V210 6000 BKN010 BKN020 BKN033 15/14 Q1008 RERA NOSIG
  • 220330Z 18010G21KT 150V210 6000 OVC003 15/14 Q1008 RERA NOSIG
  • 220300Z 18010G21KT 140V210 3500 -RA OVC003 15/14 Q1008 NOSIG
  • 220230Z 17010KT 130V200 2500 RA OVC003 15/14 Q1008 NOSIG

TAF TAF GMTT
Valid from the 22 at 00:00 until the 23 at 06:00 UTC


212300Z 2200/2306 17006KT 6000 BKN006 BKN010
TEMPO 2203/2215 20017G32KT 3000 RA
TEMPO 2215/2223 20018G40KT 2000 SHRA BKN006 BKN010 SCT016TCU



MET'MAP, your aeronautical weather chart ! - Copyright ORBIFLY December 2007 - Disclaimer

ORBIFLY MET'MAP TEAM :

Programming & Development : Alexandra Zaïnal
Concept & Development : Baudouin d'Aumeries
Co-Development & Prog : Marc-Olivier Méhu
Technical & hardware support : Manuel Goepfert

Contact : metmap@orbifly.com




SOURCES & CREDITS :

   NOAA